Time;durP1;ratioP1;P1;durP2;ratioP2;P2;SDS_P1;SDS_P2;PMS_P1;PMS_P2;Temp;Humidity;BMP_temperature;BMP_pressure;BME280_temperature;BME280_humidity;BME280_pressure;Samples;Min_cycle;Max_cycle;Signal;HPM_P1;HPM_P2
2022/09/18 00:00:43;;;;;;;3.23;2.20;;;11.10;99.90;;;;;;5009539;28;20194;-63
2022/09/18 00:03:09;;;;;;;2.50;2.30;;;11.00;99.90;;;;;;5031159;28;20206;-63
2022/09/18 00:05:36;;;;;;;3.93;2.27;;;10.90;99.90;;;;;;5020448;28;20191;-63
2022/09/18 00:08:02;;;;;;;5.20;2.70;;;10.90;99.90;;;;;;5027190;28;20212;-63
2022/09/18 00:10:28;;;;;;;2.30;2.10;;;10.90;99.90;;;;;;5014606;28;20529;-63
2022/09/18 00:12:53;;;;;;;2.23;2.03;;;10.90;99.90;;;;;;5027533;28;20249;-63
2022/09/18 00:15:19;;;;;;;2.33;1.93;;;10.80;99.90;;;;;;5013235;28;20199;-63
2022/09/18 00:17:44;;;;;;;2.60;2.40;;;10.80;99.90;;;;;;5024913;28;20192;-63
2022/09/18 00:20:09;;;;;;;2.43;2.23;;;10.80;99.90;;;;;;5023505;28;20503;-63
2022/09/18 00:22:35;;;;;;;3.40;2.13;;;10.70;99.90;;;;;;5035831;28;20202;-63
2022/09/18 00:25:01;;;;;;;2.47;2.27;;;10.70;99.90;;;;;;5023848;28;20201;-63
2022/09/18 00:27:26;;;;;;;3.00;2.07;;;10.70;99.90;;;;;;5024389;28;20196;-63
2022/09/18 00:29:52;;;;;;;3.40;2.67;;;10.70;99.90;;;;;;5024189;28;20205;-63
2022/09/18 00:32:17;;;;;;;5.10;2.50;;;10.70;99.90;;;;;;5026289;28;20203;-63
2022/09/18 00:34:42;;;;;;;5.50;2.57;;;10.70;99.90;;;;;;5025614;28;20241;-63
2022/09/18 00:37:08;;;;;;;2.00;1.50;;;10.60;99.90;;;;;;5034418;28;20237;-63
2022/09/18 00:39:33;;;;;;;3.93;2.10;;;10.60;99.90;;;;;;5030802;28;20571;-63
2022/09/18 00:41:59;;;;;;;2.90;1.80;;;10.60;99.90;;;;;;5044006;28;20204;-63
2022/09/18 00:44:36;;;;;;;1.97;1.70;;;10.50;99.90;;;;;;5025084;28;20204;-63
2022/09/18 00:47:10;;;;;;;1.83;1.70;;;10.50;99.90;;;;;;5019067;28;20189;-64
2022/09/18 00:49:46;;;;;;;2.30;1.30;;;10.50;99.90;;;;;;5030988;28;20251;-63
2022/09/18 00:52:14;;;;;;;2.30;1.90;;;10.40;99.90;;;;;;5008720;28;20207;-63
2022/09/18 00:54:47;;;;;;;2.87;1.53;;;10.40;99.90;;;;;;5026894;28;20388;-63
2022/09/18 00:57:19;;;;;;;2.50;1.73;;;10.40;99.90;;;;;;5016412;28;20186;-63
2022/09/18 00:59:48;;;;;;;1.50;1.40;;;10.40;99.90;;;;;;5026658;28;20206;-62
2022/09/18 01:02:14;;;;;;;1.37;1.27;;;10.40;99.90;;;;;;5034795;28;20616;-63
2022/09/18 01:04:39;;;;;;;1.53;1.40;;;10.50;99.90;;;;;;5030491;28;20318;-63
2022/09/18 01:07:24;;;;;;;4.03;1.40;;;10.50;99.90;;;;;;5031669;28;20203;-63
2022/09/18 01:10:19;;;;;;;1.70;1.33;;;10.50;99.90;;;;;;5022465;28;20206;-63
2022/09/18 01:12:59;;;;;;;1.30;1.03;;;10.50;99.90;;;;;;5008266;28;20317;-63
2022/09/18 01:15:27;;;;;;;2.73;1.40;;;10.40;99.90;;;;;;5027863;28;20245;-63
2022/09/18 01:18:10;;;;;;;1.37;1.00;;;10.40;99.90;;;;;;5037197;28;20289;-63
2022/09/18 01:20:49;;;;;;;1.10;1.10;;;10.40;99.90;;;;;;5027830;28;20187;-63
2022/09/18 01:23:47;;;;;;;1.17;1.03;;;10.40;99.90;;;;;;5014218;28;20217;-63
2022/09/18 01:26:37;;;;;;;1.07;0.93;;;10.40;99.90;;;;;;5029813;28;20241;-63
2022/09/18 01:29:22;;;;;;;0.60;0.60;;;10.40;99.90;;;;;;5016760;28;20207;-63
2022/09/18 01:31:57;;;;;;;3.43;1.13;;;10.40;99.90;;;;;;5007872;28;20238;-63
2022/09/18 01:34:25;;;;;;;0.70;0.70;;;10.40;99.90;;;;;;5023187;28;20265;-63
2022/09/18 01:36:57;;;;;;;1.90;1.00;;;10.40;99.90;;;;;;5041871;28;20753;-63
2022/09/18 01:39:30;;;;;;;2.33;1.10;;;10.40;99.90;;;;;;5017181;28;20662;-63
2022/09/18 01:41:58;;;;;;;1.17;0.70;;;10.40;99.90;;;;;;5017519;28;20203;-63
2022/09/18 01:44:28;;;;;;;1.17;1.00;;;10.40;99.90;;;;;;5033315;28;20214;-63
2022/09/18 01:46:57;;;;;;;1.17;0.80;;;10.40;99.90;;;;;;5025069;28;20223;-63
2022/09/18 01:49:27;;;;;;;0.80;0.80;;;10.40;99.90;;;;;;5030965;28;20213;-64
2022/09/18 01:52:01;;;;;;;0.77;0.67;;;10.40;99.90;;;;;;5012315;28;20302;-63
2022/09/18 01:54:31;;;;;;;0.70;0.70;;;10.40;99.90;;;;;;5020150;28;20293;-63
2022/09/18 01:57:13;;;;;;;0.70;0.70;;;10.40;99.90;;;;;;5032808;28;20251;-63
2022/09/18 01:59:45;;;;;;;1.33;0.73;;;10.40;99.90;;;;;;5021025;28;20200;-64
2022/09/18 02:02:41;;;;;;;2.30;0.90;;;10.30;99.90;;;;;;5007690;28;20183;-63
2022/09/18 02:05:10;;;;;;;2.20;0.90;;;10.30;99.90;;;;;;5028076;28;20291;-63
2022/09/18 02:07:49;;;;;;;1.03;0.70;;;10.30;99.90;;;;;;5035049;28;20203;-63
2022/09/18 02:10:16;;;;;;;0.90;0.70;;;10.40;99.90;;;;;;5014868;28;20534;-63
2022/09/18 02:12:44;;;;;;;1.37;1.27;;;10.40;99.90;;;;;;5033515;28;20220;-63
2022/09/18 02:15:12;;;;;;;1.30;1.30;;;10.40;99.90;;;;;;5027334;28;20192;-62
2022/09/18 02:17:49;;;;;;;2.70;1.10;;;10.40;99.90;;;;;;5027226;28;20683;-63
2022/09/18 02:20:20;;;;;;;1.13;0.93;;;10.40;99.90;;;;;;5014320;28;20206;-64
2022/09/18 02:22:48;;;;;;;5.53;1.27;;;10.40;99.90;;;;;;5023328;28;20251;-64
2022/09/18 02:25:17;;;;;;;1.73;0.80;;;10.30;99.90;;;;;;5032931;28;20214;-63
2022/09/18 02:27:43;;;;;;;2.07;1.23;;;10.30;99.90;;;;;;5034477;28;20340;-62
2022/09/18 02:30:09;;;;;;;2.20;1.53;;;10.30;99.90;;;;;;5023477;28;20691;-63
2022/09/18 02:32:36;;;;;;;2.70;1.50;;;10.30;99.90;;;;;;5041317;28;20196;-63
2022/09/18 02:35:03;;;;;;;1.90;1.37;;;10.30;99.90;;;;;;5029240;28;20964;-63
2022/09/18 02:37:57;;;;;;;5.13;2.50;;;10.20;99.90;;;;;;5045959;28;20203;-63
2022/09/18 02:40:36;;;;;;;1.60;1.50;;;10.20;99.90;;;;;;5016920;28;20212;-63
2022/09/18 02:43:15;;;;;;;2.30;2.10;;;10.10;99.90;;;;;;5025797;28;20195;-63
2022/09/18 02:46:19;;;;;;;8.63;2.90;;;10.10;99.90;;;;;;5014963;28;20286;-63
2022/09/18 02:49:10;;;;;;;4.20;1.90;;;10.10;99.90;;;;;;5021668;28;20201;-63
2022/09/18 02:51:53;;;;;;;11.97;2.83;;;10.00;99.90;;;;;;5037695;28;20541;-64
2022/09/18 02:54:28;;;;;;;7.73;2.50;;;10.00;99.90;;;;;;5013635;28;20230;-63
2022/09/18 02:57:08;;;;;;;6.53;2.57;;;10.00;99.90;;;;;;5012401;28;20194;-63
2022/09/18 02:59:42;;;;;;;13.00;3.20;;;10.00;99.90;;;;;;5015535;28;20249;-63
2022/09/18 03:02:08;;;;;;;8.43;2.73;;;10.00;99.90;;;;;;5018370;28;20294;-64
2022/09/18 03:04:34;;;;;;;7.37;3.07;;;10.00;99.90;;;;;;5027056;28;20648;-64
2022/09/18 03:06:59;;;;;;;11.53;3.60;;;10.00;99.90;;;;;;5025578;28;20218;-62
2022/09/18 03:09:25;;;;;;;7.73;2.97;;;10.00;99.90;;;;;;5028399;28;20612;-63
2022/09/18 03:11:52;;;;;;;13.80;3.60;;;10.00;99.90;;;;;;5044966;28;20286;-62
2022/09/18 03:14:18;;;;;;;11.73;3.27;;;10.00;99.90;;;;;;5023822;28;20266;-63
2022/09/18 03:16:43;;;;;;;12.70;3.07;;;10.00;99.90;;;;;;5035867;28;20231;-63
2022/09/18 03:19:10;;;;;;;13.60;3.83;;;9.90;99.90;;;;;;5030249;28;20191;-63
2022/09/18 03:21:36;;;;;;;11.93;3.07;;;9.90;99.90;;;;;;5022122;28;20279;-64
2022/09/18 03:24:01;;;;;;;9.83;3.20;;;9.90;99.90;;;;;;5035066;28;20291;-63
2022/09/18 03:26:27;;;;;;;12.83;4.00;;;9.90;99.90;;;;;;5025400;28;20192;-62
2022/09/18 03:28:52;;;;;;;16.97;4.53;;;9.90;99.90;;;;;;5024255;28;20195;-63
2022/09/18 03:31:18;;;;;;;11.57;4.10;;;9.90;99.90;;;;;;5025058;28;20227;-63
2022/09/18 03:33:43;;;;;;;18.80;3.70;;;9.90;99.90;;;;;;5025272;28;20219;-64
2022/09/18 03:36:08;;;;;;;18.90;4.80;;;10.00;99.90;;;;;;5024920;28;20187;-63
2022/09/18 03:38:36;;;;;;;15.60;4.00;;;10.00;99.90;;;;;;5029882;28;20658;-63
2022/09/18 03:41:02;;;;;;;14.20;4.30;;;10.10;99.90;;;;;;5018725;28;20188;-62
2022/09/18 03:43:28;;;;;;;15.57;5.33;;;10.10;99.90;;;;;;5026036;28;20257;-63
2022/09/18 03:45:53;;;;;;;16.73;4.47;;;10.10;99.90;;;;;;5014802;28;20192;-63
2022/09/18 03:48:19;;;;;;;8.80;3.83;;;10.10;99.90;;;;;;5028992;28;20293;-63
2022/09/18 03:50:47;;;;;;;17.27;4.57;;;10.10;99.90;;;;;;5024546;28;20789;-63
2022/09/18 03:53:12;;;;;;;20.10;5.10;;;10.10;99.90;;;;;;5039029;28;20279;-62
2022/09/18 03:55:38;;;;;;;9.30;3.90;;;10.10;99.90;;;;;;5023714;28;20231;-63
2022/09/18 03:58:04;;;;;;;13.17;4.80;;;10.10;99.90;;;;;;5036084;28;20230;-64
2022/09/18 04:00:29;;;;;;;10.63;4.37;;;10.10;99.90;;;;;;5024893;28;20275;-64
2022/09/18 04:02:55;;;;;;;14.67;4.47;;;10.10;99.90;;;;;;5041723;28;20197;-63
2022/09/18 04:05:20;;;;;;;9.00;4.67;;;10.10;99.90;;;;;;5026406;28;20239;-64
2022/09/18 04:07:45;;;;;;;17.97;5.23;;;10.10;99.90;;;;;;5034446;28;20605;-63
2022/09/18 04:10:11;;;;;;;14.67;5.53;;;10.10;99.90;;;;;;5023146;28;20227;-63
2022/09/18 04:12:36;;;;;;;9.30;4.87;;;10.20;99.90;;;;;;5030205;28;20531;-64
2022/09/18 04:15:02;;;;;;;10.70;4.97;;;10.20;99.90;;;;;;5022875;28;20258;-63
2022/09/18 04:17:28;;;;;;;8.77;4.10;;;10.20;99.90;;;;;;5028048;28;20588;-63
2022/09/18 04:19:53;;;;;;;13.93;4.10;;;10.20;99.90;;;;;;5021234;28;20602;-64
2022/09/18 04:22:19;;;;;;;13.03;4.77;;;10.20;99.90;;;;;;5037271;28;20877;-63
2022/09/18 04:24:45;;;;;;;11.97;4.60;;;10.20;99.90;;;;;;5023924;28;20208;-64
2022/09/18 04:27:11;;;;;;;8.53;4.57;;;10.20;99.90;;;;;;5026602;28;20192;-63
2022/09/18 04:29:36;;;;;;;10.30;3.77;;;10.20;99.90;;;;;;5022015;28;20606;-62
2022/09/18 04:32:01;;;;;;;9.87;3.63;;;10.20;99.90;;;;;;5036291;28;20234;-64
2022/09/18 04:34:27;;;;;;;8.90;4.00;;;10.20;99.90;;;;;;5026507;28;20753;-63
2022/09/18 04:36:53;;;;;;;8.40;4.13;;;10.20;99.90;;;;;;5022127;28;20211;-64
2022/09/18 04:39:18;;;;;;;6.63;3.50;;;10.20;99.90;;;;;;5034463;28;20205;-64
2022/09/18 04:41:47;;;;;;;11.77;3.90;;;10.20;99.90;;;;;;5016188;28;20176;-63
2022/09/18 04:44:12;;;;;;;14.17;3.77;;;10.20;99.90;;;;;;5037962;28;20208;-64
2022/09/18 04:46:38;;;;;;;7.77;3.27;;;10.20;99.90;;;;;;5026027;28;20195;-63
2022/09/18 04:49:03;;;;;;;10.80;3.47;;;10.20;99.90;;;;;;5037361;28;20270;-63
2022/09/18 04:51:29;;;;;;;9.47;3.53;;;10.20;99.90;;;;;;5008968;28;20243;-63
2022/09/18 04:53:54;;;;;;;9.50;3.60;;;10.10;99.90;;;;;;5031049;28;20236;-63
2022/09/18 04:56:20;;;;;;;6.97;2.60;;;10.20;99.90;;;;;;5022747;28;20195;-62
2022/09/18 04:58:45;;;;;;;10.50;2.90;;;10.20;99.90;;;;;;5035862;28;20658;-63
2022/09/18 05:01:11;;;;;;;8.23;2.93;;;10.20;99.90;;;;;;5024331;28;20194;-63
2022/09/18 05:03:36;;;;;;;10.07;2.73;;;10.10;99.90;;;;;;5027437;28;20191;-63
2022/09/18 05:06:02;;;;;;;4.17;1.93;;;10.10;99.90;;;;;;5022034;28;20270;-63
2022/09/18 05:08:28;;;;;;;11.83;2.43;;;10.10;99.90;;;;;;5032394;28;20207;-63
2022/09/18 05:10:54;;;;;;;8.20;2.77;;;10.00;99.90;;;;;;5023091;28;20297;-63
2022/09/18 05:13:19;;;;;;;9.00;2.43;;;10.00;99.90;;;;;;5033297;28;20219;-63
2022/09/18 05:15:45;;;;;;;7.10;2.87;;;10.00;99.90;;;;;;5017983;28;20208;-63
2022/09/18 05:18:11;;;;;;;10.03;2.63;;;10.00;99.90;;;;;;5025639;28;20235;-63
2022/09/18 05:20:37;;;;;;;8.27;2.67;;;10.00;99.90;;;;;;5025460;28;20679;-63
2022/09/18 05:23:03;;;;;;;6.33;2.50;;;10.00;99.90;;;;;;5032808;28;20207;-63
2022/09/18 05:25:29;;;;;;;6.93;2.47;;;10.00;99.90;;;;;;5037868;28;20214;-61
2022/09/18 05:27:55;;;;;;;12.20;2.83;;;10.00;99.90;;;;;;5027933;28;20204;-62
2022/09/18 05:30:21;;;;;;;7.63;2.40;;;10.00;99.90;;;;;;5030106;28;20355;-63
2022/09/18 05:32:55;;;;;;;7.47;2.60;;;9.90;99.90;;;;;;5040906;28;20276;-63
2022/09/18 05:35:21;;;;;;;6.20;2.43;;;9.90;99.90;;;;;;5024619;28;20554;-63
2022/09/18 05:37:52;;;;;;;11.53;3.37;;;9.90;99.90;;;;;;5045314;28;20198;-63
2022/09/18 05:40:19;;;;;;;9.77;2.50;;;9.90;99.90;;;;;;5018088;28;20282;-63
2022/09/18 05:42:45;;;;;;;6.00;2.00;;;9.90;99.90;;;;;;5029593;28;20197;-63
2022/09/18 05:45:12;;;;;;;7.57;2.97;;;9.80;99.90;;;;;;5032178;28;20207;-63
2022/09/18 05:47:37;;;;;;;4.33;1.87;;;9.80;99.90;;;;;;5030246;28;20708;-63
2022/09/18 05:50:03;;;;;;;7.47;2.23;;;9.80;99.90;;;;;;5032425;28;20234;-63
2022/09/18 05:52:29;;;;;;;5.87;2.73;;;9.70;99.90;;;;;;5026790;28;20224;-63
2022/09/18 05:54:54;;;;;;;7.27;2.63;;;9.70;99.90;;;;;;5035248;28;20283;-63
2022/09/18 05:57:19;;;;;;;6.10;2.33;;;9.70;99.90;;;;;;5032374;28;20211;-63
2022/09/18 05:59:45;;;;;;;10.53;3.47;;;9.60;99.90;;;;;;5032413;28;20200;-63
2022/09/18 06:02:10;;;;;;;7.40;2.67;;;9.60;99.90;;;;;;5028369;28;20702;-63
2022/09/18 06:04:36;;;;;;;7.67;2.53;;;9.70;99.90;;;;;;5041836;28;20677;-62
2022/09/18 06:07:01;;;;;;;10.93;2.50;;;9.70;99.90;;;;;;5027261;28;20184;-62
2022/09/18 06:09:27;;;;;;;8.40;2.07;;;9.70;99.90;;;;;;5025268;28;20216;-62
2022/09/18 06:11:52;;;;;;;8.50;2.57;;;9.70;99.90;;;;;;5014692;28;20196;-62
2022/09/18 06:14:18;;;;;;;10.53;2.33;;;9.70;99.90;;;;;;5041013;28;20577;-62
2022/09/18 06:16:43;;;;;;;10.13;2.50;;;9.70;99.90;;;;;;5018439;28;20263;-62
2022/09/18 06:19:09;;;;;;;5.43;2.00;;;9.80;99.90;;;;;;5031492;28;20194;-63
2022/09/18 06:21:34;;;;;;;6.63;2.23;;;9.80;99.90;;;;;;5023194;28;20209;-62
2022/09/18 06:24:00;;;;;;;21.73;2.50;;;9.80;99.90;;;;;;5036356;28;20195;-62
2022/09/18 06:26:25;;;;;;;9.40;1.80;;;9.90;99.90;;;;;;5024134;28;20187;-63
2022/09/18 06:28:51;;;;;;;9.93;2.53;;;9.90;99.90;;;;;;5033695;28;20666;-63
2022/09/18 06:31:16;;;;;;;4.43;1.83;;;9.90;99.90;;;;;;5024881;28;20222;-63
2022/09/18 06:33:42;;;;;;;10.10;2.53;;;10.00;99.90;;;;;;5028622;28;20204;-63
2022/09/18 06:36:12;;;;;;;6.93;2.57;;;10.10;99.90;;;;;;5017736;28;20229;-63
2022/09/18 06:38:38;;;;;;;7.30;1.90;;;10.10;99.90;;;;;;5033706;28;20343;-63
2022/09/18 06:41:04;;;;;;;3.93;1.63;;;10.10;99.90;;;;;;5019112;28;20300;-63
2022/09/18 06:43:29;;;;;;;8.87;2.20;;;10.20;99.90;;;;;;5033727;28;20275;-63
2022/09/18 06:45:56;;;;;;;10.40;3.10;;;10.20;99.90;;;;;;5025660;28;20213;-63
2022/09/18 06:48:23;;;;;;;6.40;1.90;;;10.20;99.90;;;;;;5045490;28;20205;-63
2022/09/18 06:50:53;;;;;;;7.70;2.00;;;10.20;99.90;;;;;;5024943;28;20246;-63
2022/09/18 06:53:19;;;;;;;10.93;2.93;;;10.20;99.90;;;;;;5027522;28;20287;-63
2022/09/18 06:55:47;;;;;;;6.50;2.10;;;10.30;99.90;;;;;;5029285;28;20388;-63
2022/09/18 06:58:14;;;;;;;8.07;2.60;;;10.30;99.90;;;;;;5028928;28;20200;-63
2022/09/18 07:00:39;;;;;;;8.20;2.47;;;10.40;99.90;;;;;;5030340;28;20216;-63
2022/09/18 07:03:05;;;;;;;12.20;3.23;;;10.30;99.90;;;;;;5032990;28;20185;-63
2022/09/18 07:05:31;;;;;;;6.20;2.50;;;10.40;99.90;;;;;;5024431;28;20192;-63
2022/09/18 07:07:57;;;;;;;7.43;1.97;;;10.50;99.90;;;;;;5029730;28;20292;-63
2022/09/18 07:10:23;;;;;;;6.77;2.40;;;10.60;99.90;;;;;;5024663;28;21062;-63
2022/09/18 07:12:55;;;;;;;5.00;2.17;;;10.50;99.90;;;;;;5039361;28;20691;-62
2022/09/18 07:15:21;;;;;;;8.73;2.03;;;10.60;99.90;;;;;;5012198;28;20540;-63
2022/09/18 07:17:46;;;;;;;8.97;2.07;;;10.60;99.90;;;;;;5034808;28;20201;-63
2022/09/18 07:20:13;;;;;;;7.73;1.90;;;10.70;99.90;;;;;;5028225;28;20226;-62
2022/09/18 07:22:39;;;;;;;5.67;1.70;;;10.70;99.90;;;;;;5040114;28;20208;-62
2022/09/18 07:25:06;;;;;;;6.40;1.87;;;10.80;99.90;;;;;;5023219;28;20204;-62
2022/09/18 07:27:32;;;;;;;5.87;1.77;;;10.90;99.90;;;;;;5036916;28;20197;-62
2022/09/18 07:29:58;;;;;;;9.60;2.40;;;11.00;99.90;;;;;;5027889;28;20211;-63
2022/09/18 07:32:24;;;;;;;7.37;1.83;;;11.10;99.90;;;;;;5025154;28;20189;-63
2022/09/18 07:34:50;;;;;;;8.20;2.17;;;11.10;99.90;;;;;;5024382;28;20286;-62
2022/09/18 07:37:15;;;;;;;3.23;1.53;;;11.20;99.90;;;;;;5011811;28;20601;-63
2022/09/18 07:39:42;;;;;;;5.60;1.80;;;11.30;99.90;;;;;;5024827;28;20197;-63
2022/09/18 07:42:09;;;;;;;13.37;2.10;;;11.30;99.90;;;;;;5016734;28;20247;-63
2022/09/18 07:44:34;;;;;;;8.27;2.00;;;11.40;99.90;;;;;;5029684;28;20213;-62
2022/09/18 07:47:00;;;;;;;8.57;2.07;;;11.50;99.90;;;;;;5022872;28;20200;-64
2022/09/18 07:49:26;;;;;;;4.97;1.53;;;11.60;99.90;;;;;;5033331;28;20231;-63
2022/09/18 07:51:51;;;;;;;5.77;2.20;;;11.50;99.90;;;;;;5022874;28;20212;-63
2022/09/18 07:54:17;;;;;;;3.77;1.73;;;11.60;99.90;;;;;;5030237;28;20255;-64
2022/09/18 07:56:42;;;;;;;7.70;1.77;;;11.60;99.90;;;;;;5022727;28;20193;-63
2022/09/18 07:59:09;;;;;;;7.60;2.67;;;11.50;99.90;;;;;;5043075;28;20184;-64
2022/09/18 08:01:34;;;;;;;8.40;2.00;;;11.60;99.90;;;;;;5015564;28;20771;-63
2022/09/18 08:04:00;;;;;;;7.73;2.03;;;11.60;99.90;;;;;;5032214;28;20288;-63
2022/09/18 08:06:26;;;;;;;3.97;1.73;;;11.70;99.90;;;;;;5024353;28;20212;-63
2022/09/18 08:08:52;;;;;;;6.23;1.77;;;11.70;99.90;;;;;;5027943;28;20204;-63
2022/09/18 08:11:17;;;;;;;6.07;2.27;;;11.60;99.90;;;;;;5024191;28;20207;-63
2022/09/18 08:13:43;;;;;;;4.90;1.53;;;11.80;99.90;;;;;;5038097;28;20309;-62
2022/09/18 08:16:08;;;;;;;4.20;1.53;;;11.70;99.90;;;;;;5022195;28;20302;-63
2022/09/18 08:18:37;;;;;;;4.90;1.97;;;11.60;99.90;;;;;;5031365;28;20199;-64
2022/09/18 08:21:03;;;;;;;12.70;3.23;;;11.60;99.90;;;;;;5015164;28;20211;-63
2022/09/18 08:23:28;;;;;;;5.13;1.60;;;11.70;99.90;;;;;;5027779;28;20212;-63
2022/09/18 08:25:54;;;;;;;5.73;1.93;;;11.90;99.90;;;;;;5026849;28;20217;-63
2022/09/18 08:28:19;;;;;;;6.40;1.90;;;12.10;99.90;;;;;;5033828;28;20547;-63
2022/09/18 08:30:45;;;;;;;7.63;2.20;;;12.10;99.90;;;;;;5025565;28;20214;-63
2022/09/18 08:33:10;;;;;;;6.57;2.40;;;12.40;99.90;;;;;;5028481;28;20255;-63
2022/09/18 08:35:36;;;;;;;10.33;2.03;;;12.50;99.90;;;;;;5031522;28;21023;-62
2022/09/18 08:38:02;;;;;;;5.47;1.43;;;12.60;99.90;;;;;;5035957;28;20196;-62
2022/09/18 08:40:47;;;;;;;5.50;1.47;;;12.70;99.90;;;;;;5022616;28;20197;-62
2022/09/18 08:43:24;;;;;;;5.13;1.40;;;12.60;99.90;;;;;;5009310;28;20178;-62
2022/09/18 08:46:10;;;;;;;3.80;1.37;;;12.60;99.90;;;;;;5014554;28;20917;-62
2022/09/18 08:48:52;;;;;;;7.00;1.57;;;12.50;99.90;;;;;;5011614;28;20998;-62
2022/09/18 08:51:29;;;;;;;5.43;1.50;;;12.40;99.90;;;;;;5018563;28;20245;-62
2022/09/18 08:54:03;;;;;;;5.13;2.00;;;12.60;99.90;;;;;;5004333;28;20295;-62
2022/09/18 08:56:28;;;;;;;5.77;1.67;;;12.90;99.90;;;;;;5012143;28;20204;-62
2022/09/18 08:59:03;;;;;;;5.10;1.40;;;13.00;99.90;;;;;;5026844;28;20485;-62
2022/09/18 09:01:41;;;;;;;2.63;1.60;;;13.30;99.90;;;;;;5022696;28;20276;-63
2022/09/18 09:04:16;;;;;;;7.33;1.83;;;13.40;99.90;;;;;;5016055;28;20187;-63
2022/09/18 09:07:00;;;;;;;6.67;1.60;;;13.30;99.90;;;;;;5024271;28;20217;-63
2022/09/18 09:09:43;;;;;;;8.47;1.50;;;13.30;99.90;;;;;;5022687;28;20198;-63
2022/09/18 09:12:27;;;;;;;4.13;1.77;;;13.30;99.90;;;;;;5020035;28;20193;-63
2022/09/18 09:15:08;;;;;;;4.60;1.77;;;13.30;99.90;;;;;;5024102;28;20240;-64
2022/09/18 09:17:54;;;;;;;3.33;1.13;;;13.30;99.90;;;;;;5016229;28;20186;-64
2022/09/18 09:20:23;;;;;;;3.67;1.30;;;13.40;99.90;;;;;;5024309;28;20198;-64
2022/09/18 09:23:15;;;;;;;5.03;1.87;;;13.40;99.90;;;;;;5018033;28;20361;-63
2022/09/18 09:26:08;;;;;;;5.53;1.63;;;13.20;99.90;;;;;;5017429;28;20586;-62
2022/09/18 09:28:55;;;;;;;5.77;1.80;;;13.20;99.90;;;;;;5019293;28;20183;-63
2022/09/18 09:31:25;;;;;;;6.17;1.50;;;13.20;99.90;;;;;;5020288;28;20200;-65
2022/09/18 09:34:05;;;;;;;6.20;1.97;;;13.20;99.90;;;;;;5009245;28;20218;-65
2022/09/18 09:36:34;;;;;;;5.57;1.23;;;13.40;99.90;;;;;;5021488;28;20290;-65
2022/09/18 09:39:14;;;;;;;7.33;1.60;;;13.50;99.90;;;;;;5039908;28;20251;-66
2022/09/18 09:42:11;;;;;;;4.23;1.40;;;13.60;99.90;;;;;;5018607;28;20196;-65
2022/09/18 09:45:14;;;;;;;3.47;1.60;;;13.50;99.90;;;;;;5015063;28;20186;-64
2022/09/18 09:47:50;;;;;;;7.33;1.93;;;13.50;99.90;;;;;;5021267;28;20208;-64
2022/09/18 09:50:35;;;;;;;5.03;1.33;;;13.30;99.90;;;;;;5013492;28;20240;-64
2022/09/18 09:53:03;;;;;;;4.50;1.50;;;13.10;99.90;;;;;;5039387;28;20220;-63
2022/09/18 09:55:34;;;;;;;6.20;1.73;;;12.60;99.90;;;;;;5025558;28;20338;-63
2022/09/18 09:58:16;;;;;;;6.13;1.80;;;12.10;99.90;;;;;;5022025;28;20193;-63
2022/09/18 10:00:58;;;;;;;7.77;1.33;;;11.30;99.90;;;;;;5019172;28;20623;-64
2022/09/18 10:03:45;;;;;;;7.27;1.70;;;11.00;99.90;;;;;;5017753;28;20189;-64
2022/09/18 10:06:30;;;;;;;7.83;2.57;;;11.00;99.90;;;;;;5017473;28;20623;-65
2022/09/18 10:09:06;;;;;;;6.90;1.90;;;11.30;99.90;;;;;;5020577;28;20204;-67
2022/09/18 10:11:36;;;;;;;2.73;1.57;;;11.60;99.90;;;;;;5018632;28;20229;-65
2022/09/18 10:14:11;;;;;;;10.03;2.47;;;12.00;99.90;;;;;;5042725;28;20258;-64
2022/09/18 10:16:42;;;;;;;5.73;2.07;;;12.20;99.90;;;;;;5016691;28;20208;-64
2022/09/18 10:19:12;;;;;;;5.30;1.63;;;12.30;99.90;;;;;;5034053;28;20685;-64
2022/09/18 10:21:39;;;;;;;8.30;1.57;;;12.80;99.90;;;;;;5021148;28;20369;-66
2022/09/18 10:24:32;;;;;;;6.47;1.67;;;13.10;99.90;;;;;;5027594;28;20191;-69
2022/09/18 10:27:08;;;;;;;5.63;1.40;;;13.10;99.90;;;;;;5023836;28;20205;-69
2022/09/18 10:29:33;;;;;;;6.97;1.17;;;13.00;99.90;;;;;;5009796;28;20891;-65
2022/09/18 10:32:00;;;;;;;5.40;1.57;;;13.10;99.90;;;;;;5025482;28;20218;-64
2022/09/18 10:34:30;;;;;;;2.67;1.47;;;13.30;99.90;;;;;;5030849;28;20224;-64
2022/09/18 10:36:55;;;;;;;6.90;1.37;;;13.40;99.90;;;;;;5018236;28;20211;-66
2022/09/18 10:39:31;;;;;;;3.20;1.10;;;13.50;99.90;;;;;;5030607;28;20206;-65
2022/09/18 10:42:04;;;;;;;2.87;1.33;;;13.50;99.90;;;;;;5022058;28;20206;-64
2022/09/18 10:44:35;;;;;;;5.70;1.90;;;13.80;99.90;;;;;;5017068;28;20195;-64
2022/09/18 10:47:07;;;;;;;2.77;1.40;;;13.80;99.90;;;;;;5018621;28;20295;-64
2022/09/18 10:50:08;;;;;;;3.97;1.30;;;13.70;99.90;;;;;;5030007;28;20211;-64
2022/09/18 10:52:34;;;;;;;4.43;1.67;;;13.50;99.90;;;;;;5013694;28;20221;-64
2022/09/18 10:55:00;;;;;;;2.73;1.70;;;13.30;99.90;;;;;;5032049;28;20255;-64
2022/09/18 10:57:34;;;;;;;6.17;1.70;;;13.30;99.90;;;;;;5026055;28;20210;-65
2022/09/18 11:00:06;;;;;;;3.37;1.37;;;13.70;99.90;;;;;;5019079;28;20727;-64
2022/09/18 11:02:39;;;;;;;4.30;1.30;;;14.20;99.90;;;;;;5025728;28;20184;-65
2022/09/18 11:05:14;;;;;;;2.37;2.00;;;14.60;99.90;;;;;;5028162;28;20647;-64
2022/09/18 11:07:47;;;;;;;6.13;1.73;;;14.90;99.90;;;;;;5017751;28;20188;-63
2022/09/18 11:10:19;;;;;;;5.23;1.57;;;15.10;99.90;;;;;;5018370;28;20192;-80
2022/09/18 11:12:49;;;;;;;4.43;1.50;;;15.30;99.90;;;;;;5012433;28;20227;-63
2022/09/18 11:15:17;;;;;;;17.43;1.90;;;15.60;99.90;;;;;;5034661;28;20205;-84
2022/09/18 11:17:50;;;;;;;2.83;2.07;;;15.30;99.90;;;;;;5032656;28;20176;-63
2022/09/18 11:20:33;;;;;;;8.87;1.67;;;14.20;99.90;;;;;;5037615;28;20192;-61
2022/09/18 11:23:17;;;;;;;3.50;1.03;;;13.50;99.90;;;;;;5025791;28;20264;-60
2022/09/18 11:25:44;;;;;;;5.27;1.20;;;12.60;99.90;;;;;;5030045;28;20287;-60
2022/09/18 11:28:30;;;;;;;2.83;1.10;;;12.10;99.90;;;;;;5028419;28;20822;-65
2022/09/18 11:31:09;;;;;;;3.10;0.93;;;12.00;99.90;;;;;;5033919;28;20977;-64
2022/09/18 11:33:53;;;;;;;4.47;1.13;;;12.10;99.90;;;;;;5017148;28;20220;-66
2022/09/18 11:36:29;;;;;;;3.50;1.10;;;12.20;99.90;;;;;;5023491;28;20212;-65
2022/09/18 11:38:57;;;;;;;1.60;1.00;;;12.60;99.90;;;;;;5023998;28;20221;-66
2022/09/18 11:41:27;;;;;;;6.47;1.70;;;13.10;99.90;;;;;;5031522;28;20657;-65
2022/09/18 11:44:10;;;;;;;5.63;1.57;;;13.40;99.90;;;;;;5038628;28;20667;-65
2022/09/18 11:46:56;;;;;;;3.30;1.50;;;13.80;99.90;;;;;;5016483;28;20211;-66
2022/09/18 11:49:28;;;;;;;6.60;1.10;;;14.30;99.90;;;;;;5011333;28;20200;-67
2022/09/18 11:52:04;;;;;;;3.73;1.47;;;14.50;99.90;;;;;;5012040;28;20243;-65
2022/09/18 11:54:42;;;;;;;4.70;1.43;;;14.70;99.90;;;;;;5019891;28;20246;-65
2022/09/18 11:57:34;;;;;;;7.80;1.63;;;15.00;99.90;;;;;;5019843;28;20317;-66
2022/09/18 12:00:10;;;;;;;3.37;1.03;;;15.10;99.90;;;;;;5019959;28;20194;-66
2022/09/18 12:03:01;;;;;;;2.73;1.37;;;15.50;99.90;;;;;;5016952;28;20190;-65
2022/09/18 12:05:30;;;;;;;10.03;2.23;;;15.80;99.90;;;;;;5013665;28;20212;-65
2022/09/18 12:08:17;;;;;;;5.97;1.77;;;15.70;99.90;;;;;;5022069;28;20226;-65
2022/09/18 12:11:08;;;;;;;1.63;0.97;;;15.10;99.90;;;;;;5016761;28;20202;-62
2022/09/18 12:14:22;;;;;;;4.07;0.70;;;14.10;99.90;;;;;;5041086;28;20239;-61
2022/09/18 12:17:02;;;;;;;2.23;0.83;;;13.10;99.90;;;;;;5002161;28;20653;-61
2022/09/18 12:19:30;;;;;;;1.37;0.67;;;12.40;99.90;;;;;;5004483;28;20193;-60
2022/09/18 12:22:31;;;;;;;2.67;1.03;;;12.20;99.90;;;;;;5024184;28;20470;-61
2022/09/18 12:24:58;;;;;;;2.23;0.80;;;12.10;99.90;;;;;;5017900;28;20198;-62
2022/09/18 12:27:29;;;;;;;1.00;1.00;;;12.40;99.90;;;;;;5024195;28;20221;-62
2022/09/18 12:30:05;;;;;;;1.07;0.83;;;13.00;99.90;;;;;;5044017;28;20675;-60
2022/09/18 12:33:08;;;;;;;3.17;1.10;;;13.80;99.90;;;;;;5019765;28;20203;-61
2022/09/18 12:35:39;;;;;;;2.37;0.80;;;14.20;99.90;;;;;;5009663;28;20213;-61
2022/09/18 12:38:38;;;;;;;2.37;1.03;;;14.60;99.90;;;;;;5017188;28;20187;-60
2022/09/18 12:41:16;;;;;;;2.63;1.30;;;15.00;99.50;;;;;;5017753;28;20195;-61
2022/09/18 12:44:08;;;;;;;1.43;0.80;;;15.60;98.40;;;;;;5024399;28;20194;-60
2022/09/18 12:46:55;;;;;;;1.13;1.00;;;16.00;98.30;;;;;;5026949;28;20203;-60
2022/09/18 12:49:49;;;;;;;2.53;0.90;;;16.00;97.90;;;;;;5017702;28;20957;-62
2022/09/18 12:52:29;;;;;;;4.63;1.53;;;16.30;97.20;;;;;;5022542;28;20229;-62
2022/09/18 12:55:14;;;;;;;4.33;1.20;;;16.60;97.20;;;;;;5027114;28;20227;-60
2022/09/18 12:58:13;;;;;;;1.57;0.97;;;16.50;97.10;;;;;;5033331;28;20226;-62
2022/09/18 13:00:40;;;;;;;1.87;0.63;;;16.20;96.70;;;;;;5042425;28;20479;-62
2022/09/18 13:03:17;;;;;;;2.93;1.30;;;16.10;97.00;;;;;;5028667;28;20183;-62
2022/09/18 13:05:57;;;;;;;3.03;1.20;;;15.70;97.30;;;;;;5014816;28;20302;-63
2022/09/18 13:08:29;;;;;;;7.47;1.30;;;15.30;98.70;;;;;;5028005;28;20218;-62